sensor_id;sensor_type;location;lat;lon;timestamp;P1;durP1;ratioP1;P2;durP2;ratioP2
16179;SDS011;8196;49.428;10.906;2023-06-24T00:01:08;5.82;;;3.63;;
16179;SDS011;8196;49.428;10.906;2023-06-24T00:03:35;5.30;;;3.78;;
16179;SDS011;8196;49.428;10.906;2023-06-24T00:06:04;6.15;;;3.83;;
16179;SDS011;8196;49.428;10.906;2023-06-24T00:08:31;5.20;;;4.00;;
16179;SDS011;8196;49.428;10.906;2023-06-24T00:11:02;6.13;;;3.80;;
16179;SDS011;8196;49.428;10.906;2023-06-24T00:13:30;5.57;;;4.38;;
16179;SDS011;8196;49.428;10.906;2023-06-24T00:15:57;4.53;;;3.67;;
16179;SDS011;8196;49.428;10.906;2023-06-24T00:18:24;6.00;;;4.05;;
16179;SDS011;8196;49.428;10.906;2023-06-24T00:20:55;6.55;;;3.95;;
16179;SDS011;8196;49.428;10.906;2023-06-24T00:23:23;4.10;;;3.70;;
16179;SDS011;8196;49.428;10.906;2023-06-24T00:25:52;5.43;;;3.63;;
16179;SDS011;8196;49.428;10.906;2023-06-24T00:28:20;4.78;;;3.92;;
16179;SDS011;8196;49.428;10.906;2023-06-24T00:30:48;4.28;;;3.80;;
16179;SDS011;8196;49.428;10.906;2023-06-24T00:33:15;4.97;;;3.92;;
16179;SDS011;8196;49.428;10.906;2023-06-24T00:35:45;5.47;;;4.20;;
16179;SDS011;8196;49.428;10.906;2023-06-24T00:38:13;4.68;;;4.03;;
16179;SDS011;8196;49.428;10.906;2023-06-24T00:40:40;4.87;;;4.00;;
16179;SDS011;8196;49.428;10.906;2023-06-24T00:43:07;5.10;;;4.60;;
16179;SDS011;8196;49.428;10.906;2023-06-24T00:45:35;5.35;;;4.20;;
16179;SDS011;8196;49.428;10.906;2023-06-24T00:48:03;5.32;;;4.13;;
16179;SDS011;8196;49.428;10.906;2023-06-24T00:50:30;4.32;;;3.72;;
16179;SDS011;8196;49.428;10.906;2023-06-24T00:52:58;5.80;;;4.17;;
16179;SDS011;8196;49.428;10.906;2023-06-24T00:55:25;4.95;;;4.38;;
16179;SDS011;8196;49.428;10.906;2023-06-24T00:57:55;4.70;;;4.25;;
16179;SDS011;8196;49.428;10.906;2023-06-24T01:00:23;5.85;;;3.95;;
16179;SDS011;8196;49.428;10.906;2023-06-24T01:02:50;4.80;;;4.07;;
16179;SDS011;8196;49.428;10.906;2023-06-24T01:05:18;5.10;;;4.10;;
16179;SDS011;8196;49.428;10.906;2023-06-24T01:07:49;4.43;;;3.95;;
16179;SDS011;8196;49.428;10.906;2023-06-24T01:10:22;5.70;;;4.53;;
16179;SDS011;8196;49.428;10.906;2023-06-24T01:12:49;5.28;;;4.30;;
16179;SDS011;8196;49.428;10.906;2023-06-24T01:15:17;5.13;;;4.28;;
16179;SDS011;8196;49.428;10.906;2023-06-24T01:28:30;5.55;;;4.30;;
16179;SDS011;8196;49.428;10.906;2023-06-24T01:33:50;6.15;;;4.57;;
16179;SDS011;8196;49.428;10.906;2023-06-24T01:36:19;9.30;;;4.30;;
16179;SDS011;8196;49.428;10.906;2023-06-24T01:38:51;5.10;;;4.22;;
16179;SDS011;8196;49.428;10.906;2023-06-24T01:41:20;5.72;;;4.32;;
16179;SDS011;8196;49.428;10.906;2023-06-24T01:43:49;5.22;;;4.32;;
16179;SDS011;8196;49.428;10.906;2023-06-24T01:46:21;6.40;;;4.75;;
16179;SDS011;8196;49.428;10.906;2023-06-24T01:48:48;6.22;;;4.50;;
16179;SDS011;8196;49.428;10.906;2023-06-24T01:51:19;5.35;;;4.63;;
16179;SDS011;8196;49.428;10.906;2023-06-24T01:53:49;6.57;;;4.63;;
16179;SDS011;8196;49.428;10.906;2023-06-24T01:56:16;5.70;;;4.60;;
16179;SDS011;8196;49.428;10.906;2023-06-24T01:58:45;5.65;;;4.53;;
16179;SDS011;8196;49.428;10.906;2023-06-24T02:01:12;7.30;;;4.40;;
16179;SDS011;8196;49.428;10.906;2023-06-24T02:03:40;7.20;;;4.53;;
16179;SDS011;8196;49.428;10.906;2023-06-24T02:06:08;5.47;;;4.50;;
16179;SDS011;8196;49.428;10.906;2023-06-24T02:08:37;7.05;;;4.78;;
16179;SDS011;8196;49.428;10.906;2023-06-24T02:11:04;8.57;;;5.07;;
16179;SDS011;8196;49.428;10.906;2023-06-24T02:13:32;6.93;;;4.90;;
16179;SDS011;8196;49.428;10.906;2023-06-24T02:16:02;6.45;;;5.30;;
16179;SDS011;8196;49.428;10.906;2023-06-24T02:18:32;7.75;;;4.97;;
16179;SDS011;8196;49.428;10.906;2023-06-24T02:21:00;6.22;;;4.85;;
16179;SDS011;8196;49.428;10.906;2023-06-24T02:23:27;5.82;;;5.00;;
16179;SDS011;8196;49.428;10.906;2023-06-24T02:25:55;5.75;;;4.70;;
16179;SDS011;8196;49.428;10.906;2023-06-24T02:28:23;5.43;;;4.75;;
16179;SDS011;8196;49.428;10.906;2023-06-24T02:30:51;5.47;;;4.80;;
16179;SDS011;8196;49.428;10.906;2023-06-24T02:33:19;6.35;;;4.72;;
16179;SDS011;8196;49.428;10.906;2023-06-24T02:35:46;6.35;;;5.40;;
16179;SDS011;8196;49.428;10.906;2023-06-24T02:38:13;6.13;;;5.13;;
16179;SDS011;8196;49.428;10.906;2023-06-24T02:40:42;5.20;;;4.70;;
16179;SDS011;8196;49.428;10.906;2023-06-24T02:43:10;7.45;;;5.00;;
16179;SDS011;8196;49.428;10.906;2023-06-24T02:45:38;7.05;;;5.05;;
16179;SDS011;8196;49.428;10.906;2023-06-24T02:48:06;5.20;;;4.70;;
16179;SDS011;8196;49.428;10.906;2023-06-24T02:50:33;7.10;;;5.03;;
16179;SDS011;8196;49.428;10.906;2023-06-24T02:53:01;6.13;;;5.43;;
16179;SDS011;8196;49.428;10.906;2023-06-24T02:55:28;6.30;;;5.00;;
16179;SDS011;8196;49.428;10.906;2023-06-24T02:57:56;6.97;;;5.13;;
16179;SDS011;8196;49.428;10.906;2023-06-24T03:00:24;5.45;;;4.60;;
16179;SDS011;8196;49.428;10.906;2023-06-24T03:02:52;6.80;;;5.13;;
16179;SDS011;8196;49.428;10.906;2023-06-24T03:05:19;5.47;;;4.75;;
16179;SDS011;8196;49.428;10.906;2023-06-24T03:07:49;7.00;;;4.93;;
16179;SDS011;8196;49.428;10.906;2023-06-24T03:10:16;6.20;;;5.15;;
16179;SDS011;8196;49.428;10.906;2023-06-24T03:12:43;6.47;;;5.20;;
16179;SDS011;8196;49.428;10.906;2023-06-24T03:15:10;6.73;;;5.20;;
16179;SDS011;8196;49.428;10.906;2023-06-24T03:17:37;6.47;;;5.22;;
16179;SDS011;8196;49.428;10.906;2023-06-24T03:20:05;5.43;;;4.78;;
16179;SDS011;8196;49.428;10.906;2023-06-24T03:22:33;6.55;;;5.43;;
16179;SDS011;8196;49.428;10.906;2023-06-24T03:25:00;5.65;;;4.90;;
16179;SDS011;8196;49.428;10.906;2023-06-24T03:27:27;7.68;;;5.32;;
16179;SDS011;8196;49.428;10.906;2023-06-24T03:29:54;7.03;;;5.32;;
16179;SDS011;8196;49.428;10.906;2023-06-24T03:32:21;7.28;;;5.38;;
16179;SDS011;8196;49.428;10.906;2023-06-24T03:34:49;6.50;;;5.05;;
16179;SDS011;8196;49.428;10.906;2023-06-24T03:37:16;7.43;;;5.33;;
16179;SDS011;8196;49.428;10.906;2023-06-24T03:39:43;6.82;;;5.05;;
16179;SDS011;8196;49.428;10.906;2023-06-24T03:42:10;7.97;;;5.15;;
16179;SDS011;8196;49.428;10.906;2023-06-24T03:44:37;6.45;;;5.25;;
16179;SDS011;8196;49.428;10.906;2023-06-24T03:47:04;6.43;;;5.50;;
16179;SDS011;8196;49.428;10.906;2023-06-24T03:49:32;6.90;;;5.15;;
16179;SDS011;8196;49.428;10.906;2023-06-24T03:51:59;6.75;;;5.22;;
16179;SDS011;8196;49.428;10.906;2023-06-24T03:54:26;7.13;;;5.75;;
16179;SDS011;8196;49.428;10.906;2023-06-24T03:56:53;7.15;;;5.30;;
16179;SDS011;8196;49.428;10.906;2023-06-24T03:59:21;7.87;;;4.93;;
16179;SDS011;8196;49.428;10.906;2023-06-24T04:01:48;6.28;;;5.38;;
16179;SDS011;8196;49.428;10.906;2023-06-24T04:04:17;8.68;;;5.60;;
16179;SDS011;8196;49.428;10.906;2023-06-24T04:06:44;6.27;;;5.67;;
16179;SDS011;8196;49.428;10.906;2023-06-24T04:09:12;6.47;;;5.28;;
16179;SDS011;8196;49.428;10.906;2023-06-24T04:11:39;5.90;;;5.28;;
16179;SDS011;8196;49.428;10.906;2023-06-24T04:14:06;6.65;;;5.47;;
16179;SDS011;8196;49.428;10.906;2023-06-24T04:16:35;7.75;;;5.47;;
16179;SDS011;8196;49.428;10.906;2023-06-24T04:19:02;6.72;;;5.70;;
16179;SDS011;8196;49.428;10.906;2023-06-24T04:21:29;7.75;;;5.28;;
16179;SDS011;8196;49.428;10.906;2023-06-24T04:23:57;7.63;;;5.75;;
16179;SDS011;8196;49.428;10.906;2023-06-24T04:26:24;7.40;;;6.00;;
16179;SDS011;8196;49.428;10.906;2023-06-24T04:28:51;8.27;;;5.63;;
16179;SDS011;8196;49.428;10.906;2023-06-24T04:33:45;6.68;;;5.45;;
16179;SDS011;8196;49.428;10.906;2023-06-24T04:36:13;7.07;;;5.80;;
16179;SDS011;8196;49.428;10.906;2023-06-24T04:38:40;7.20;;;5.88;;
16179;SDS011;8196;49.428;10.906;2023-06-24T04:41:07;7.10;;;5.38;;
16179;SDS011;8196;49.428;10.906;2023-06-24T04:43:34;6.80;;;5.90;;
16179;SDS011;8196;49.428;10.906;2023-06-24T04:46:02;7.25;;;5.78;;
16179;SDS011;8196;49.428;10.906;2023-06-24T04:48:29;6.43;;;5.55;;
16179;SDS011;8196;49.428;10.906;2023-06-24T04:50:56;6.20;;;5.43;;
16179;SDS011;8196;49.428;10.906;2023-06-24T04:53:24;6.50;;;5.70;;
16179;SDS011;8196;49.428;10.906;2023-06-24T04:55:51;7.15;;;5.70;;
16179;SDS011;8196;49.428;10.906;2023-06-24T04:58:18;6.45;;;5.55;;
16179;SDS011;8196;49.428;10.906;2023-06-24T05:00:45;6.32;;;5.22;;
16179;SDS011;8196;49.428;10.906;2023-06-24T05:03:13;6.97;;;5.80;;
16179;SDS011;8196;49.428;10.906;2023-06-24T05:05:40;7.30;;;5.63;;
16179;SDS011;8196;49.428;10.906;2023-06-24T05:08:08;7.32;;;5.18;;
16179;SDS011;8196;49.428;10.906;2023-06-24T05:10:35;7.30;;;5.55;;
16179;SDS011;8196;49.428;10.906;2023-06-24T05:13:02;5.73;;;5.13;;
16179;SDS011;8196;49.428;10.906;2023-06-24T05:15:29;7.72;;;5.45;;
16179;SDS011;8196;49.428;10.906;2023-06-24T05:17:56;5.80;;;4.85;;
16179;SDS011;8196;49.428;10.906;2023-06-24T05:20:24;5.90;;;5.13;;
16179;SDS011;8196;49.428;10.906;2023-06-24T05:22:51;6.35;;;4.90;;
16179;SDS011;8196;49.428;10.906;2023-06-24T05:25:18;6.22;;;4.90;;
16179;SDS011;8196;49.428;10.906;2023-06-24T05:27:45;5.10;;;4.50;;
16179;SDS011;8196;49.428;10.906;2023-06-24T05:30:13;6.20;;;5.00;;
16179;SDS011;8196;49.428;10.906;2023-06-24T05:32:40;5.10;;;4.38;;
16179;SDS011;8196;49.428;10.906;2023-06-24T05:35:08;6.68;;;5.00;;
16179;SDS011;8196;49.428;10.906;2023-06-24T05:37:35;6.63;;;4.60;;
16179;SDS011;8196;49.428;10.906;2023-06-24T05:40:02;4.75;;;4.13;;
16179;SDS011;8196;49.428;10.906;2023-06-24T05:42:31;7.60;;;4.50;;
16179;SDS011;8196;49.428;10.906;2023-06-24T05:44:58;4.40;;;4.00;;
16179;SDS011;8196;49.428;10.906;2023-06-24T05:47:25;7.32;;;4.30;;
16179;SDS011;8196;49.428;10.906;2023-06-24T05:49:53;4.93;;;4.18;;
16179;SDS011;8196;49.428;10.906;2023-06-24T05:52:20;4.85;;;4.03;;
16179;SDS011;8196;49.428;10.906;2023-06-24T05:54:47;4.40;;;3.60;;
16179;SDS011;8196;49.428;10.906;2023-06-24T05:57:14;5.35;;;3.90;;
16179;SDS011;8196;49.428;10.906;2023-06-24T05:59:41;4.03;;;3.60;;
16179;SDS011;8196;49.428;10.906;2023-06-24T06:02:08;4.10;;;3.30;;
16179;SDS011;8196;49.428;10.906;2023-06-24T06:04:36;4.70;;;3.83;;
16179;SDS011;8196;49.428;10.906;2023-06-24T06:07:03;4.65;;;4.13;;
16179;SDS011;8196;49.428;10.906;2023-06-24T06:09:30;4.05;;;3.65;;
16179;SDS011;8196;49.428;10.906;2023-06-24T06:11:57;3.97;;;3.58;;
16179;SDS011;8196;49.428;10.906;2023-06-24T06:14:25;4.53;;;4.00;;
16179;SDS011;8196;49.428;10.906;2023-06-24T06:16:52;4.17;;;3.73;;
16179;SDS011;8196;49.428;10.906;2023-06-24T06:19:19;4.78;;;3.70;;
16179;SDS011;8196;49.428;10.906;2023-06-24T06:21:46;3.80;;;3.30;;
16179;SDS011;8196;49.428;10.906;2023-06-24T06:24:13;4.80;;;3.35;;
16179;SDS011;8196;49.428;10.906;2023-06-24T06:26:42;4.57;;;3.10;;
16179;SDS011;8196;49.428;10.906;2023-06-24T06:29:10;4.20;;;3.20;;
16179;SDS011;8196;49.428;10.906;2023-06-24T06:31:37;4.87;;;3.40;;
16179;SDS011;8196;49.428;10.906;2023-06-24T06:34:05;3.75;;;3.33;;
16179;SDS011;8196;49.428;10.906;2023-06-24T06:36:32;4.68;;;3.58;;
16179;SDS011;8196;49.428;10.906;2023-06-24T06:39:00;4.43;;;3.30;;
16179;SDS011;8196;49.428;10.906;2023-06-24T06:41:27;3.88;;;3.40;;
16179;SDS011;8196;49.428;10.906;2023-06-24T06:43:54;3.25;;;2.90;;
16179;SDS011;8196;49.428;10.906;2023-06-24T06:46:21;4.50;;;3.20;;
16179;SDS011;8196;49.428;10.906;2023-06-24T06:48:48;4.43;;;3.25;;
16179;SDS011;8196;49.428;10.906;2023-06-24T06:51:16;4.60;;;3.15;;
16179;SDS011;8196;49.428;10.906;2023-06-24T06:53:45;4.40;;;3.10;;
16179;SDS011;8196;49.428;10.906;2023-06-24T06:56:28;3.83;;;3.40;;
16179;SDS011;8196;49.428;10.906;2023-06-24T06:58:55;4.13;;;3.20;;
16179;SDS011;8196;49.428;10.906;2023-06-24T07:01:22;4.43;;;3.30;;
16179;SDS011;8196;49.428;10.906;2023-06-24T07:03:49;3.75;;;3.35;;
16179;SDS011;8196;49.428;10.906;2023-06-24T07:06:18;4.32;;;3.22;;
16179;SDS011;8196;49.428;10.906;2023-06-24T07:08:45;3.70;;;3.25;;
16179;SDS011;8196;49.428;10.906;2023-06-24T07:11:13;3.88;;;3.47;;
16179;SDS011;8196;49.428;10.906;2023-06-24T07:13:40;3.58;;;3.17;;
16179;SDS011;8196;49.428;10.906;2023-06-24T07:16:07;3.75;;;3.20;;
16179;SDS011;8196;49.428;10.906;2023-06-24T07:18:34;3.80;;;3.20;;
16179;SDS011;8196;49.428;10.906;2023-06-24T07:21:01;4.78;;;3.40;;
16179;SDS011;8196;49.428;10.906;2023-06-24T07:23:29;4.25;;;3.05;;
16179;SDS011;8196;49.428;10.906;2023-06-24T07:25:56;3.85;;;2.90;;
16179;SDS011;8196;49.428;10.906;2023-06-24T07:28:23;4.82;;;3.42;;
16179;SDS011;8196;49.428;10.906;2023-06-24T07:30:50;4.85;;;3.42;;
16179;SDS011;8196;49.428;10.906;2023-06-24T07:33:17;4.27;;;3.37;;
16179;SDS011;8196;49.428;10.906;2023-06-24T07:35:45;4.05;;;3.67;;
16179;SDS011;8196;49.428;10.906;2023-06-24T07:38:12;4.23;;;3.40;;
16179;SDS011;8196;49.428;10.906;2023-06-24T07:40:39;5.15;;;3.15;;
16179;SDS011;8196;49.428;10.906;2023-06-24T07:43:06;4.65;;;3.50;;
16179;SDS011;8196;49.428;10.906;2023-06-24T07:45:33;4.38;;;3.17;;
16179;SDS011;8196;49.428;10.906;2023-06-24T07:48:01;5.00;;;3.88;;
16179;SDS011;8196;49.428;10.906;2023-06-24T07:50:28;3.80;;;3.42;;
16179;SDS011;8196;49.428;10.906;2023-06-24T07:52:55;3.97;;;3.55;;
16179;SDS011;8196;49.428;10.906;2023-06-24T07:55:22;4.78;;;3.78;;
16179;SDS011;8196;49.428;10.906;2023-06-24T07:57:49;4.80;;;3.47;;
16179;SDS011;8196;49.428;10.906;2023-06-24T08:00:17;4.63;;;3.70;;
16179;SDS011;8196;49.428;10.906;2023-06-24T08:02:44;3.45;;;3.15;;
16179;SDS011;8196;49.428;10.906;2023-06-24T08:05:11;3.80;;;3.17;;
16179;SDS011;8196;49.428;10.906;2023-06-24T08:07:38;3.55;;;3.25;;
16179;SDS011;8196;49.428;10.906;2023-06-24T08:10:06;4.70;;;3.47;;
16179;SDS011;8196;49.428;10.906;2023-06-24T08:12:33;4.00;;;3.30;;
16179;SDS011;8196;49.428;10.906;2023-06-24T08:15:00;4.93;;;4.20;;
16179;SDS011;8196;49.428;10.906;2023-06-24T08:17:27;4.00;;;3.40;;
16179;SDS011;8196;49.428;10.906;2023-06-24T08:19:55;4.35;;;3.92;;
16179;SDS011;8196;49.428;10.906;2023-06-24T08:22:22;4.93;;;3.60;;
16179;SDS011;8196;49.428;10.906;2023-06-24T08:24:49;3.70;;;3.00;;
16179;SDS011;8196;49.428;10.906;2023-06-24T08:27:16;5.50;;;3.40;;
16179;SDS011;8196;49.428;10.906;2023-06-24T08:29:43;3.90;;;3.43;;
16179;SDS011;8196;49.428;10.906;2023-06-24T08:32:11;5.82;;;3.08;;
16179;SDS011;8196;49.428;10.906;2023-06-24T08:34:38;4.73;;;3.70;;
16179;SDS011;8196;49.428;10.906;2023-06-24T08:37:05;3.88;;;3.40;;
16179;SDS011;8196;49.428;10.906;2023-06-24T08:39:32;3.90;;;3.45;;
16179;SDS011;8196;49.428;10.906;2023-06-24T08:41:59;3.78;;;3.38;;
16179;SDS011;8196;49.428;10.906;2023-06-24T08:44:26;3.58;;;3.28;;
16179;SDS011;8196;49.428;10.906;2023-06-24T08:46:54;4.78;;;3.53;;
16179;SDS011;8196;49.428;10.906;2023-06-24T08:51:54;4.10;;;3.35;;
16179;SDS011;8196;49.428;10.906;2023-06-24T08:54:22;3.47;;;3.17;;
16179;SDS011;8196;49.428;10.906;2023-06-24T08:56:49;3.05;;;2.75;;
16179;SDS011;8196;49.428;10.906;2023-06-24T08:59:17;3.88;;;2.60;;
16179;SDS011;8196;49.428;10.906;2023-06-24T09:01:46;3.63;;;2.70;;
16179;SDS011;8196;49.428;10.906;2023-06-24T09:04:13;3.88;;;3.13;;
16179;SDS011;8196;49.428;10.906;2023-06-24T09:06:40;3.10;;;2.80;;
16179;SDS011;8196;49.428;10.906;2023-06-24T09:09:23;3.72;;;3.33;;
16179;SDS011;8196;49.428;10.906;2023-06-24T09:11:52;3.00;;;2.70;;
16179;SDS011;8196;49.428;10.906;2023-06-24T09:14:20;3.67;;;3.28;;
16179;SDS011;8196;49.428;10.906;2023-06-24T09:16:52;4.30;;;3.00;;
16179;SDS011;8196;49.428;10.906;2023-06-24T09:19:20;3.40;;;3.00;;
16179;SDS011;8196;49.428;10.906;2023-06-24T09:21:47;5.13;;;3.25;;
16179;SDS011;8196;49.428;10.906;2023-06-24T09:24:15;3.00;;;2.70;;
16179;SDS011;8196;49.428;10.906;2023-06-24T09:26:42;5.10;;;2.90;;
16179;SDS011;8196;49.428;10.906;2023-06-24T09:29:14;3.60;;;2.50;;
16179;SDS011;8196;49.428;10.906;2023-06-24T09:31:49;5.78;;;3.00;;
16179;SDS011;8196;49.428;10.906;2023-06-24T09:34:19;2.90;;;2.70;;
16179;SDS011;8196;49.428;10.906;2023-06-24T09:36:55;3.25;;;2.70;;
16179;SDS011;8196;49.428;10.906;2023-06-24T09:39:22;2.92;;;2.55;;
16179;SDS011;8196;49.428;10.906;2023-06-24T09:41:57;3.00;;;2.70;;
16179;SDS011;8196;49.428;10.906;2023-06-24T09:44:25;3.00;;;2.53;;
16179;SDS011;8196;49.428;10.906;2023-06-24T09:46:53;3.37;;;2.53;;
16179;SDS011;8196;49.428;10.906;2023-06-24T09:49:20;3.20;;;2.88;;
16179;SDS011;8196;49.428;10.906;2023-06-24T09:51:48;3.50;;;3.00;;
16179;SDS011;8196;49.428;10.906;2023-06-24T09:54:16;3.55;;;3.25;;
16179;SDS011;8196;49.428;10.906;2023-06-24T09:56:43;2.78;;;2.58;;
16179;SDS011;8196;49.428;10.906;2023-06-24T09:59:12;2.55;;;2.35;;
16179;SDS011;8196;49.428;10.906;2023-06-24T10:01:42;2.95;;;2.38;;
16179;SDS011;8196;49.428;10.906;2023-06-24T10:04:13;2.83;;;2.40;;
16179;SDS011;8196;49.428;10.906;2023-06-24T10:06:42;2.97;;;2.25;;
16179;SDS011;8196;49.428;10.906;2023-06-24T10:09:09;3.47;;;2.35;;
16179;SDS011;8196;49.428;10.906;2023-06-24T10:11:36;2.90;;;2.30;;
16179;SDS011;8196;49.428;10.906;2023-06-24T10:14:03;2.60;;;2.40;;
16179;SDS011;8196;49.428;10.906;2023-06-24T10:16:30;2.72;;;2.53;;
16179;SDS011;8196;49.428;10.906;2023-06-24T10:19:01;2.80;;;2.30;;
16179;SDS011;8196;49.428;10.906;2023-06-24T10:27:02;2.83;;;2.47;;
16179;SDS011;8196;49.428;10.906;2023-06-24T10:29:31;4.65;;;2.40;;
16179;SDS011;8196;49.428;10.906;2023-06-24T10:32:00;2.80;;;2.42;;
16179;SDS011;8196;49.428;10.906;2023-06-24T10:34:29;2.70;;;2.50;;
16179;SDS011;8196;49.428;10.906;2023-06-24T10:37:01;3.03;;;2.40;;
16179;SDS011;8196;49.428;10.906;2023-06-24T10:39:45;3.15;;;2.53;;
16179;SDS011;8196;49.428;10.906;2023-06-24T10:45:02;2.47;;;2.28;;
16179;SDS011;8196;49.428;10.906;2023-06-24T10:47:41;2.65;;;2.42;;
16179;SDS011;8196;49.428;10.906;2023-06-24T10:50:09;2.55;;;2.35;;
16179;SDS011;8196;49.428;10.906;2023-06-24T10:52:38;2.58;;;2.38;;
16179;SDS011;8196;49.428;10.906;2023-06-24T10:55:06;3.40;;;2.83;;
16179;SDS011;8196;49.428;10.906;2023-06-24T10:57:33;3.15;;;2.63;;
16179;SDS011;8196;49.428;10.906;2023-06-24T11:00:01;2.90;;;2.50;;
16179;SDS011;8196;49.428;10.906;2023-06-24T11:02:29;2.72;;;2.40;;
16179;SDS011;8196;49.428;10.906;2023-06-24T11:04:58;3.75;;;3.13;;
16179;SDS011;8196;49.428;10.906;2023-06-24T11:07:26;3.30;;;2.78;;
16179;SDS011;8196;49.428;10.906;2023-06-24T11:09:55;3.00;;;2.80;;
16179;SDS011;8196;49.428;10.906;2023-06-24T11:12:24;3.15;;;2.72;;
16179;SDS011;8196;49.428;10.906;2023-06-24T11:14:55;3.05;;;2.60;;
16179;SDS011;8196;49.428;10.906;2023-06-24T11:17:23;2.97;;;2.60;;
16179;SDS011;8196;49.428;10.906;2023-06-24T11:19:52;3.63;;;2.70;;
16179;SDS011;8196;49.428;10.906;2023-06-24T11:22:19;3.50;;;2.80;;
16179;SDS011;8196;49.428;10.906;2023-06-24T11:24:47;3.10;;;2.70;;
16179;SDS011;8196;49.428;10.906;2023-06-24T11:27:14;2.40;;;2.20;;
16179;SDS011;8196;49.428;10.906;2023-06-24T11:29:41;2.90;;;2.70;;
16179;SDS011;8196;49.428;10.906;2023-06-24T11:32:09;3.05;;;2.75;;
16179;SDS011;8196;49.428;10.906;2023-06-24T11:34:36;2.83;;;2.40;;
16179;SDS011;8196;49.428;10.906;2023-06-24T11:37:11;2.70;;;2.50;;
16179;SDS011;8196;49.428;10.906;2023-06-24T11:39:39;3.22;;;2.67;;
16179;SDS011;8196;49.428;10.906;2023-06-24T11:42:06;3.90;;;2.50;;
16179;SDS011;8196;49.428;10.906;2023-06-24T11:44:34;3.15;;;2.50;;
16179;SDS011;8196;49.428;10.906;2023-06-24T11:47:03;2.83;;;2.55;;
16179;SDS011;8196;49.428;10.906;2023-06-24T11:49:47;2.63;;;2.42;;
16179;SDS011;8196;49.428;10.906;2023-06-24T11:52:15;2.85;;;2.65;;
16179;SDS011;8196;49.428;10.906;2023-06-24T11:54:42;2.50;;;2.30;;
16179;SDS011;8196;49.428;10.906;2023-06-24T11:57:09;3.25;;;2.90;;
16179;SDS011;8196;49.428;10.906;2023-06-24T11:59:41;3.20;;;2.90;;
16179;SDS011;8196;49.428;10.906;2023-06-24T12:02:13;2.95;;;2.75;;
16179;SDS011;8196;49.428;10.906;2023-06-24T12:04:43;4.80;;;2.58;;
16179;SDS011;8196;49.428;10.906;2023-06-24T12:07:10;2.87;;;2.57;;
16179;SDS011;8196;49.428;10.906;2023-06-24T12:09:37;3.95;;;2.60;;
16179;SDS011;8196;49.428;10.906;2023-06-24T12:12:05;2.70;;;2.50;;
16179;SDS011;8196;49.428;10.906;2023-06-24T12:14:32;2.90;;;2.70;;
16179;SDS011;8196;49.428;10.906;2023-06-24T12:17:00;2.80;;;2.60;;
16179;SDS011;8196;49.428;10.906;2023-06-24T12:19:28;2.70;;;2.50;;
16179;SDS011;8196;49.428;10.906;2023-06-24T12:21:55;3.20;;;2.90;;
16179;SDS011;8196;49.428;10.906;2023-06-24T12:24:22;3.10;;;2.60;;
16179;SDS011;8196;49.428;10.906;2023-06-24T12:26:50;2.70;;;2.50;;
16179;SDS011;8196;49.428;10.906;2023-06-24T12:29:17;2.80;;;2.60;;
16179;SDS011;8196;49.428;10.906;2023-06-24T12:31:44;3.35;;;2.85;;
16179;SDS011;8196;49.428;10.906;2023-06-24T12:34:11;3.50;;;2.60;;
16179;SDS011;8196;49.428;10.906;2023-06-24T12:36:39;4.32;;;2.83;;
16179;SDS011;8196;49.428;10.906;2023-06-24T12:39:06;3.95;;;2.90;;
16179;SDS011;8196;49.428;10.906;2023-06-24T12:41:33;2.80;;;2.60;;
16179;SDS011;8196;49.428;10.906;2023-06-24T12:44:00;3.17;;;2.88;;
16179;SDS011;8196;49.428;10.906;2023-06-24T12:46:27;3.13;;;2.85;;
16179;SDS011;8196;49.428;10.906;2023-06-24T12:48:54;2.95;;;2.60;;
16179;SDS011;8196;49.428;10.906;2023-06-24T12:51:22;2.65;;;2.45;;
16179;SDS011;8196;49.428;10.906;2023-06-24T12:53:50;2.67;;;2.47;;
16179;SDS011;8196;49.428;10.906;2023-06-24T12:56:17;2.70;;;2.50;;
16179;SDS011;8196;49.428;10.906;2023-06-24T12:58:44;2.90;;;2.60;;
16179;SDS011;8196;49.428;10.906;2023-06-24T13:01:11;2.75;;;2.55;;
16179;SDS011;8196;49.428;10.906;2023-06-24T13:03:41;2.70;;;2.28;;
16179;SDS011;8196;49.428;10.906;2023-06-24T13:06:08;3.10;;;2.70;;
16179;SDS011;8196;49.428;10.906;2023-06-24T13:08:35;3.10;;;2.80;;
16179;SDS011;8196;49.428;10.906;2023-06-24T13:11:02;4.07;;;2.72;;
16179;SDS011;8196;49.428;10.906;2023-06-24T13:13:30;2.65;;;2.45;;
16179;SDS011;8196;49.428;10.906;2023-06-24T13:15:57;3.00;;;2.70;;
16179;SDS011;8196;49.428;10.906;2023-06-24T13:18:24;2.70;;;2.50;;
16179;SDS011;8196;49.428;10.906;2023-06-24T13:20:51;3.42;;;3.00;;
16179;SDS011;8196;49.428;10.906;2023-06-24T13:23:32;2.92;;;2.67;;
16179;SDS011;8196;49.428;10.906;2023-06-24T13:26:00;2.80;;;2.60;;
16179;SDS011;8196;49.428;10.906;2023-06-24T13:28:27;2.85;;;2.55;;
16179;SDS011;8196;49.428;10.906;2023-06-24T13:30:54;2.47;;;2.28;;
16179;SDS011;8196;49.428;10.906;2023-06-24T13:33:21;2.80;;;2.60;;
16179;SDS011;8196;49.428;10.906;2023-06-24T13:35:49;2.58;;;2.38;;
16179;SDS011;8196;49.428;10.906;2023-06-24T13:38:16;3.28;;;2.20;;
16179;SDS011;8196;49.428;10.906;2023-06-24T13:40:43;3.00;;;2.30;;
16179;SDS011;8196;49.428;10.906;2023-06-24T13:43:10;2.50;;;2.30;;
16179;SDS011;8196;49.428;10.906;2023-06-24T13:45:40;3.30;;;2.30;;
16179;SDS011;8196;49.428;10.906;2023-06-24T13:48:09;2.45;;;2.25;;
16179;SDS011;8196;49.428;10.906;2023-06-24T13:50:36;2.60;;;2.40;;
16179;SDS011;8196;49.428;10.906;2023-06-24T13:53:04;3.10;;;2.50;;
16179;SDS011;8196;49.428;10.906;2023-06-24T13:55:31;2.55;;;2.35;;
16179;SDS011;8196;49.428;10.906;2023-06-24T13:57:58;3.75;;;2.58;;
16179;SDS011;8196;49.428;10.906;2023-06-24T14:00:25;3.45;;;2.35;;
16179;SDS011;8196;49.428;10.906;2023-06-24T14:02:52;2.55;;;2.35;;
16179;SDS011;8196;49.428;10.906;2023-06-24T14:05:20;2.83;;;2.42;;
16179;SDS011;8196;49.428;10.906;2023-06-24T14:07:47;3.80;;;2.10;;
16179;SDS011;8196;49.428;10.906;2023-06-24T14:10:14;2.50;;;2.30;;
16179;SDS011;8196;49.428;10.906;2023-06-24T14:12:42;3.13;;;2.33;;
16179;SDS011;8196;49.428;10.906;2023-06-24T14:15:09;2.45;;;2.15;;
16179;SDS011;8196;49.428;10.906;2023-06-24T14:17:37;2.65;;;2.30;;
16179;SDS011;8196;49.428;10.906;2023-06-24T14:20:04;2.42;;;2.20;;
16179;SDS011;8196;49.428;10.906;2023-06-24T14:22:31;2.70;;;2.50;;
16179;SDS011;8196;49.428;10.906;2023-06-24T14:24:58;2.63;;;2.42;;
16179;SDS011;8196;49.428;10.906;2023-06-24T14:27:25;2.58;;;2.38;;
16179;SDS011;8196;49.428;10.906;2023-06-24T14:29:53;2.80;;;2.60;;
16179;SDS011;8196;49.428;10.906;2023-06-24T14:32:20;2.80;;;2.60;;
16179;SDS011;8196;49.428;10.906;2023-06-24T14:34:47;3.73;;;2.93;;
16179;SDS011;8196;49.428;10.906;2023-06-24T14:37:14;2.93;;;2.73;;
16179;SDS011;8196;49.428;10.906;2023-06-24T14:39:42;3.20;;;2.90;;
16179;SDS011;8196;49.428;10.906;2023-06-24T14:42:09;3.27;;;2.87;;
16179;SDS011;8196;49.428;10.906;2023-06-24T14:44:36;3.90;;;2.87;;
16179;SDS011;8196;49.428;10.906;2023-06-24T14:47:03;3.17;;;2.83;;
16179;SDS011;8196;49.428;10.906;2023-06-24T14:49:30;3.10;;;2.80;;
16179;SDS011;8196;49.428;10.906;2023-06-24T14:51:57;3.20;;;2.90;;
16179;SDS011;8196;49.428;10.906;2023-06-24T14:54:25;2.90;;;2.70;;
16179;SDS011;8196;49.428;10.906;2023-06-24T14:56:52;3.17;;;2.70;;
16179;SDS011;8196;49.428;10.906;2023-06-24T14:59:19;2.78;;;2.47;;
16179;SDS011;8196;49.428;10.906;2023-06-24T15:01:46;2.75;;;2.47;;
16179;SDS011;8196;49.428;10.906;2023-06-24T15:04:13;2.97;;;2.57;;
16179;SDS011;8196;49.428;10.906;2023-06-24T15:06:41;3.30;;;3.00;;
16179;SDS011;8196;49.428;10.906;2023-06-24T15:09:08;3.00;;;2.70;;
16179;SDS011;8196;49.428;10.906;2023-06-24T15:11:35;3.20;;;2.55;;
16179;SDS011;8196;49.428;10.906;2023-06-24T15:14:02;2.63;;;2.42;;
16179;SDS011;8196;49.428;10.906;2023-06-24T15:16:29;2.75;;;2.47;;
16179;SDS011;8196;49.428;10.906;2023-06-24T15:18:57;3.30;;;2.67;;